Time;durP1;ratioP1;P1;durP2;ratioP2;P2;SDS_P1;SDS_P2;PMS_P1;PMS_P2;Temp;Humidity;BMP_temperature;BMP_pressure;BME280_temperature;BME280_humidity;BME280_pressure;Samples;Min_cycle;Max_cycle;Signal;HPM_P1;HPM_P2
2022/09/03 00:01:35;;;;;;;;;;;21.80;47.40;;;;;;485021;246;1185;-74
2022/09/03 00:03:36;;;;;;;;;;;21.80;47.40;;;;;;485028;246;1390;-73
2022/09/03 00:05:38;;;;;;;;;;;21.70;47.50;;;;;;485110;246;1183;-73
2022/09/03 00:07:38;;;;;;;;;;;21.80;47.50;;;;;;484971;246;1481;-73
2022/09/03 00:09:40;;;;;;;;;;;21.80;47.30;;;;;;485053;246;1212;-73
2022/09/03 00:11:41;;;;;;;;;;;21.80;47.40;;;;;;485142;245;1114;-74
2022/09/03 00:13:42;;;;;;;;;;;21.70;47.40;;;;;;485038;246;2202;-73
2022/09/03 00:15:44;;;;;;;;;;;21.70;47.50;;;;;;485019;246;1124;-73
2022/09/03 00:17:45;;;;;;;;;;;21.70;47.60;;;;;;485022;246;1151;-73
2022/09/03 00:19:46;;;;;;;;;;;21.70;47.60;;;;;;485003;246;1176;-74
2022/09/03 00:21:48;;;;;;;;;;;21.60;47.60;;;;;;485084;246;1215;-74
2022/09/03 00:23:49;;;;;;;;;;;21.60;47.60;;;;;;485050;246;1139;-73
2022/09/03 00:25:51;;;;;;;;;;;21.60;47.80;;;;;;485092;246;1137;-74
2022/09/03 00:27:53;;;;;;;;;;;21.70;47.80;;;;;;485049;246;1141;-73
2022/09/03 00:29:53;;;;;;;;;;;21.70;47.50;;;;;;484993;246;1442;-73
2022/09/03 00:31:55;;;;;;;;;;;21.70;47.50;;;;;;485049;246;1135;-73
2022/09/03 00:33:57;;;;;;;;;;;21.60;47.70;;;;;;485054;246;2105;-73
2022/09/03 00:35:57;;;;;;;;;;;21.60;47.70;;;;;;484953;245;1468;-73
2022/09/03 00:37:59;;;;;;;;;;;21.60;47.90;;;;;;485003;246;1216;-73
2022/09/03 00:40:02;;;;;;;;;;;21.70;47.90;;;;;;485000;246;1167;-73
2022/09/03 00:42:05;;;;;;;;;;;21.70;47.60;;;;;;480053;248;1616;-73
2022/09/03 00:44:03;;;;;;;;;;;21.70;47.70;;;;;;482304;246;1396;-73
2022/09/03 00:46:05;;;;;;;;;;;21.70;47.70;;;;;;485055;245;1192;-73
2022/09/03 00:48:06;;;;;;;;;;;21.50;47.90;;;;;;484890;246;1405;-73
2022/09/03 00:50:08;;;;;;;;;;;21.60;47.90;;;;;;484895;246;1377;-73
2022/09/03 00:52:10;;;;;;;;;;;21.70;47.90;;;;;;484875;246;2199;-73
2022/09/03 00:54:10;;;;;;;;;;;21.70;47.60;;;;;;484897;246;1483;-73
2022/09/03 00:56:12;;;;;;;;;;;21.80;47.40;;;;;;484949;246;1246;-73
2022/09/03 00:58:12;;;;;;;;;;;21.80;47.50;;;;;;484926;245;1460;-73
2022/09/03 01:00:14;;;;;;;;;;;21.70;47.40;;;;;;485003;245;1342;-73
2022/09/03 01:02:15;;;;;;;;;;;21.70;47.70;;;;;;484993;246;1160;-74
2022/09/03 01:04:20;;;;;;;;;;;21.80;47.50;;;;;;484990;245;1201;-74
2022/09/03 01:06:19;;;;;;;;;;;21.70;47.40;;;;;;484737;246;1568;-73
2022/09/03 01:08:21;;;;;;;;;;;21.80;47.30;;;;;;484934;245;1145;-73
2022/09/03 01:10:26;;;;;;;;;;;21.70;47.20;;;;;;484983;245;1087;-73
2022/09/03 01:12:24;;;;;;;;;;;21.70;47.40;;;;;;484796;245;2175;-73
2022/09/03 01:14:26;;;;;;;;;;;21.60;47.40;;;;;;485012;246;1129;-73
2022/09/03 01:16:27;;;;;;;;;;;21.70;47.40;;;;;;485084;245;1156;-73
2022/09/03 01:18:28;;;;;;;;;;;21.60;47.60;;;;;;485016;246;1122;-73
2022/09/03 01:20:30;;;;;;;;;;;21.70;47.40;;;;;;485087;246;1150;-73
2022/09/03 01:22:31;;;;;;;;;;;21.70;47.30;;;;;;484981;246;1177;-73
2022/09/03 01:24:32;;;;;;;;;;;21.70;47.60;;;;;;485086;246;1242;-73
2022/09/03 01:26:34;;;;;;;;;;;21.70;47.40;;;;;;484970;246;1260;-73
2022/09/03 01:28:36;;;;;;;;;;;21.80;47.40;;;;;;484990;246;1185;-73
2022/09/03 01:30:37;;;;;;;;;;;21.80;47.20;;;;;;484867;246;1408;-74
2022/09/03 01:32:38;;;;;;;;;;;21.80;47.30;;;;;;484964;246;2191;-73
2022/09/03 01:34:39;;;;;;;;;;;21.80;47.20;;;;;;485020;244;1209;-73
2022/09/03 01:36:40;;;;;;;;;;;21.80;47.30;;;;;;484863;246;1273;-73
2022/09/03 01:38:42;;;;;;;;;;;21.80;47.30;;;;;;484949;246;1285;-73
2022/09/03 01:40:43;;;;;;;;;;;21.80;47.30;;;;;;485128;245;1236;-74
2022/09/03 01:42:44;;;;;;;;;;;21.80;47.30;;;;;;484972;246;1349;-73
2022/09/03 01:44:47;;;;;;;;;;;21.80;47.30;;;;;;485018;245;1089;-74
2022/09/03 01:46:47;;;;;;;;;;;21.70;47.40;;;;;;484910;246;1473;-73
2022/09/03 01:48:48;;;;;;;;;;;21.80;47.50;;;;;;485126;246;1213;-74
2022/09/03 01:50:50;;;;;;;;;;;21.70;47.60;;;;;;484981;246;1125;-73
2022/09/03 01:52:51;;;;;;;;;;;21.70;47.40;;;;;;484969;246;2153;-73
2022/09/03 01:54:54;;;;;;;;;;;21.70;47.50;;;;;;485002;246;1206;-73
2022/09/03 01:56:56;;;;;;;;;;;21.70;47.60;;;;;;484952;246;1407;-73
2022/09/03 01:59:02;;;;;;;;;;;21.70;47.70;;;;;;484984;246;1397;-73
2022/09/03 02:00:58;;;;;;;;;;;21.70;47.60;;;;;;484526;246;1417;-73
2022/09/03 02:02:58;;;;;;;;;;;21.80;47.40;;;;;;484959;246;1448;-73
2022/09/03 02:05:00;;;;;;;;;;;22.00;47.30;;;;;;484960;245;1218;-73
2022/09/03 02:07:01;;;;;;;;;;;22.00;47.00;;;;;;484991;246;1123;-73
2022/09/03 02:09:02;;;;;;;;;;;22.00;47.20;;;;;;484975;246;1217;-73
2022/09/03 02:11:04;;;;;;;;;;;21.90;47.10;;;;;;485080;246;1265;-73
2022/09/03 02:13:05;;;;;;;;;;;21.90;47.10;;;;;;484834;246;2191;-73
2022/09/03 02:15:06;;;;;;;;;;;21.90;47.20;;;;;;485181;246;1203;-73
2022/09/03 02:17:08;;;;;;;;;;;21.90;47.10;;;;;;484986;246;1182;-73
2022/09/03 02:19:09;;;;;;;;;;;21.90;47.30;;;;;;485051;245;1226;-73
2022/09/03 02:21:10;;;;;;;;;;;21.80;47.40;;;;;;484823;246;1165;-73
2022/09/03 02:23:12;;;;;;;;;;;21.80;47.40;;;;;;484808;246;1354;-73
2022/09/03 02:25:13;;;;;;;;;;;21.70;47.50;;;;;;485067;246;1220;-73
2022/09/03 02:27:14;;;;;;;;;;;21.70;47.60;;;;;;485013;246;1279;-73
2022/09/03 02:29:16;;;;;;;;;;;21.60;47.90;;;;;;485103;246;1103;-73
2022/09/03 02:31:17;;;;;;;;;;;21.70;47.80;;;;;;485001;246;1288;-73
2022/09/03 02:33:18;;;;;;;;;;;21.70;47.70;;;;;;485179;246;2164;-73
2022/09/03 02:35:20;;;;;;;;;;;21.70;47.60;;;;;;484975;246;1300;-74
2022/09/03 02:37:21;;;;;;;;;;;21.70;47.60;;;;;;484996;246;1166;-74
2022/09/03 02:39:22;;;;;;;;;;;21.70;47.70;;;;;;485037;246;1446;-73
2022/09/03 02:41:26;;;;;;;;;;;21.70;47.60;;;;;;484971;246;1142;-73
2022/09/03 02:43:26;;;;;;;;;;;21.70;47.70;;;;;;484847;245;1635;-74
2022/09/03 02:45:26;;;;;;;;;;;21.80;47.40;;;;;;484889;246;1415;-73
2022/09/03 02:47:28;;;;;;;;;;;21.80;47.50;;;;;;484943;245;1224;-74
2022/09/03 02:49:29;;;;;;;;;;;21.90;47.30;;;;;;484943;245;1181;-73
2022/09/03 02:51:30;;;;;;;;;;;21.80;47.40;;;;;;484950;246;1360;-73
2022/09/03 02:53:32;;;;;;;;;;;21.80;47.40;;;;;;484927;246;2176;-73
2022/09/03 02:55:33;;;;;;;;;;;21.70;47.70;;;;;;484983;246;1274;-73
2022/09/03 02:57:34;;;;;;;;;;;21.80;47.60;;;;;;484955;246;1157;-73
2022/09/03 02:59:36;;;;;;;;;;;21.70;47.40;;;;;;484932;246;1175;-73
2022/09/03 03:01:37;;;;;;;;;;;21.80;47.60;;;;;;484928;246;1134;-73
2022/09/03 03:03:39;;;;;;;;;;;21.80;47.50;;;;;;484951;245;1205;-74
2022/09/03 03:05:40;;;;;;;;;;;21.90;47.30;;;;;;484928;246;1221;-74
2022/09/03 03:07:41;;;;;;;;;;;21.90;47.20;;;;;;484928;246;1203;-73
2022/09/03 03:09:43;;;;;;;;;;;21.90;47.10;;;;;;484955;246;1217;-73
2022/09/03 03:11:44;;;;;;;;;;;21.90;47.40;;;;;;484926;246;1108;-73
2022/09/03 03:13:45;;;;;;;;;;;21.80;47.30;;;;;;484964;246;2160;-73
2022/09/03 03:15:47;;;;;;;;;;;21.60;47.70;;;;;;484988;245;1144;-73
2022/09/03 03:17:48;;;;;;;;;;;21.70;47.60;;;;;;484967;246;1168;-73
2022/09/03 03:19:50;;;;;;;;;;;21.80;47.50;;;;;;484915;246;1181;-73
2022/09/03 03:21:51;;;;;;;;;;;21.80;47.40;;;;;;485058;245;1148;-73
2022/09/03 03:23:52;;;;;;;;;;;21.90;47.30;;;;;;484941;246;1266;-73
2022/09/03 03:25:54;;;;;;;;;;;21.90;47.30;;;;;;485041;246;1153;-73
2022/09/03 03:27:56;;;;;;;;;;;21.80;47.30;;;;;;484949;246;1161;-73
2022/09/03 03:29:57;;;;;;;;;;;21.90;47.30;;;;;;484950;246;1215;-73
2022/09/03 03:31:58;;;;;;;;;;;21.80;47.30;;;;;;484928;246;1151;-73
2022/09/03 03:34:00;;;;;;;;;;;21.80;47.50;;;;;;484915;246;2195;-73
2022/09/03 03:36:01;;;;;;;;;;;21.80;47.30;;;;;;485055;246;1154;-73
2022/09/03 03:38:03;;;;;;;;;;;21.80;47.40;;;;;;484940;246;1168;-73
2022/09/03 03:40:04;;;;;;;;;;;21.80;47.40;;;;;;484931;246;1116;-73
2022/09/03 03:42:05;;;;;;;;;;;21.80;47.30;;;;;;484915;246;1183;-73
2022/09/03 03:44:07;;;;;;;;;;;21.80;47.40;;;;;;484901;246;1199;-73
2022/09/03 03:46:09;;;;;;;;;;;21.80;47.60;;;;;;484968;245;1279;-73
2022/09/03 03:48:09;;;;;;;;;;;21.80;47.30;;;;;;484882;246;1406;-73
2022/09/03 03:50:11;;;;;;;;;;;21.80;47.30;;;;;;485037;246;1136;-73
2022/09/03 03:52:12;;;;;;;;;;;21.80;47.30;;;;;;484756;246;1151;-73
2022/09/03 03:54:13;;;;;;;;;;;21.80;47.40;;;;;;484970;246;2183;-73
2022/09/03 03:56:15;;;;;;;;;;;21.80;47.40;;;;;;485037;246;1165;-73
2022/09/03 03:58:16;;;;;;;;;;;21.80;47.30;;;;;;484938;246;1179;-74
2022/09/03 04:00:17;;;;;;;;;;;21.80;47.20;;;;;;484952;246;1200;-74
2022/09/03 04:02:19;;;;;;;;;;;21.90;47.30;;;;;;484925;246;1223;-73
2022/09/03 04:04:20;;;;;;;;;;;21.90;47.10;;;;;;484947;246;1183;-73
2022/09/03 04:06:21;;;;;;;;;;;22.00;47.00;;;;;;484931;244;1217;-73
2022/09/03 04:08:23;;;;;;;;;;;21.90;47.10;;;;;;484923;246;1131;-73
2022/09/03 04:10:24;;;;;;;;;;;22.00;47.10;;;;;;484913;246;1216;-73
2022/09/03 04:12:25;;;;;;;;;;;22.00;47.00;;;;;;484952;246;1169;-74
2022/09/03 04:14:27;;;;;;;;;;;22.00;46.90;;;;;;484943;246;2195;-73
2022/09/03 04:16:28;;;;;;;;;;;21.90;47.20;;;;;;484943;246;1215;-73
2022/09/03 04:18:29;;;;;;;;;;;21.90;47.30;;;;;;485057;246;1244;-73
2022/09/03 04:20:31;;;;;;;;;;;22.00;47.10;;;;;;484937;245;1110;-73
2022/09/03 04:22:32;;;;;;;;;;;22.00;47.00;;;;;;484950;246;1191;-73
2022/09/03 04:24:34;;;;;;;;;;;22.10;46.90;;;;;;485085;245;1214;-73
2022/09/03 04:26:35;;;;;;;;;;;22.10;46.90;;;;;;484919;246;1454;-73
2022/09/03 04:28:36;;;;;;;;;;;21.90;46.80;;;;;;484980;246;1166;-73
2022/09/03 04:30:37;;;;;;;;;;;21.90;47.10;;;;;;484981;245;1157;-74
2022/09/03 04:32:54;;;;;;;;;;;22.00;47.00;;;;;;484990;246;1168;-73
2022/09/03 04:34:56;;;;;;;;;;;21.90;47.00;;;;;;484933;245;2191;-73
2022/09/03 04:36:57;;;;;;;;;;;21.90;47.00;;;;;;484988;246;1101;-73
2022/09/03 04:38:58;;;;;;;;;;;21.90;47.00;;;;;;484833;246;1221;-73
2022/09/03 04:41:00;;;;;;;;;;;21.90;47.20;;;;;;485049;246;1239;-73
2022/09/03 04:43:01;;;;;;;;;;;21.90;47.20;;;;;;484939;246;1195;-73
2022/09/03 04:45:03;;;;;;;;;;;21.90;47.00;;;;;;484924;245;1196;-74
2022/09/03 04:47:04;;;;;;;;;;;21.90;47.00;;;;;;484946;246;1179;-73
2022/09/03 04:49:08;;;;;;;;;;;22.00;46.80;;;;;;484910;246;1180;-73
2022/09/03 04:51:07;;;;;;;;;;;21.90;47.00;;;;;;484275;246;1594;-73
2022/09/03 04:53:08;;;;;;;;;;;21.90;47.20;;;;;;484892;246;1272;-73
2022/09/03 04:55:10;;;;;;;;;;;21.80;47.20;;;;;;484892;246;2183;-73
2022/09/03 04:57:11;;;;;;;;;;;21.90;47.30;;;;;;484635;246;1233;-73
2022/09/03 04:59:13;;;;;;;;;;;21.90;47.00;;;;;;484943;246;1172;-73
2022/09/03 05:01:14;;;;;;;;;;;22.00;47.10;;;;;;484730;246;1155;-73
2022/09/03 05:03:16;;;;;;;;;;;22.00;47.10;;;;;;485006;246;1212;-73
2022/09/03 05:05:17;;;;;;;;;;;21.90;47.00;;;;;;484964;246;1410;-74
2022/09/03 05:07:19;;;;;;;;;;;22.00;47.00;;;;;;484779;246;1332;-73
2022/09/03 05:09:20;;;;;;;;;;;21.90;47.10;;;;;;484973;246;1438;-73
2022/09/03 05:11:21;;;;;;;;;;;21.80;47.20;;;;;;485018;246;1191;-73
2022/09/03 05:13:22;;;;;;;;;;;21.80;47.30;;;;;;485027;246;1100;-73
2022/09/03 05:15:24;;;;;;;;;;;21.80;47.30;;;;;;485000;246;2196;-73
2022/09/03 05:17:25;;;;;;;;;;;21.80;47.30;;;;;;484990;246;1187;-73
2022/09/03 05:19:27;;;;;;;;;;;21.80;47.30;;;;;;485069;246;1192;-73
2022/09/03 05:21:28;;;;;;;;;;;21.80;47.30;;;;;;484911;246;1209;-73
2022/09/03 05:23:30;;;;;;;;;;;21.90;47.30;;;;;;484995;246;1174;-73
2022/09/03 05:25:31;;;;;;;;;;;21.90;47.20;;;;;;484865;245;1176;-73
2022/09/03 05:27:33;;;;;;;;;;;22.00;47.20;;;;;;484970;245;1157;-73
2022/09/03 05:29:34;;;;;;;;;;;21.90;47.20;;;;;;484954;246;1195;-73
2022/09/03 05:31:35;;;;;;;;;;;21.90;47.20;;;;;;484988;245;1273;-73
2022/09/03 05:33:37;;;;;;;;;;;22.00;47.20;;;;;;484951;245;1195;-73
2022/09/03 05:35:39;;;;;;;;;;;22.00;47.20;;;;;;484893;246;2186;-73
2022/09/03 05:37:40;;;;;;;;;;;21.90;47.20;;;;;;484943;246;1165;-73
2022/09/03 05:39:41;;;;;;;;;;;21.90;47.20;;;;;;484982;246;1185;-73
2022/09/03 05:41:42;;;;;;;;;;;21.90;47.30;;;;;;484949;246;1209;-73
2022/09/03 05:43:44;;;;;;;;;;;21.80;47.30;;;;;;485135;246;1372;-73
2022/09/03 05:45:45;;;;;;;;;;;21.90;47.40;;;;;;484971;246;1145;-73
2022/09/03 05:47:46;;;;;;;;;;;21.90;47.30;;;;;;485217;246;1140;-73
2022/09/03 05:49:48;;;;;;;;;;;21.90;47.40;;;;;;484985;246;1305;-73
2022/09/03 05:51:49;;;;;;;;;;;21.80;47.60;;;;;;485004;244;1185;-73
2022/09/03 05:53:52;;;;;;;;;;;21.80;47.60;;;;;;484993;246;1148;-73
2022/09/03 05:55:52;;;;;;;;;;;21.80;47.70;;;;;;484871;246;2200;-73
2022/09/03 05:57:53;;;;;;;;;;;21.80;47.60;;;;;;484985;246;1187;-73
2022/09/03 05:59:54;;;;;;;;;;;21.90;47.50;;;;;;485013;246;1249;-73
2022/09/03 06:01:56;;;;;;;;;;;21.90;47.50;;;;;;484985;246;1154;-73
2022/09/03 06:03:57;;;;;;;;;;;21.90;47.50;;;;;;485110;246;1170;-73
2022/09/03 06:05:58;;;;;;;;;;;21.90;47.50;;;;;;484935;246;1396;-73
2022/09/03 06:08:00;;;;;;;;;;;21.80;47.60;;;;;;485060;245;1148;-73
2022/09/03 06:10:03;;;;;;;;;;;21.80;47.70;;;;;;485001;246;1208;-73
2022/09/03 06:12:02;;;;;;;;;;;21.90;47.70;;;;;;484748;246;1430;-74
2022/09/03 06:14:04;;;;;;;;;;;21.90;47.50;;;;;;484984;246;2208;-73
2022/09/03 06:16:05;;;;;;;;;;;21.90;47.40;;;;;;484970;245;1242;-73
2022/09/03 06:18:07;;;;;;;;;;;21.80;47.40;;;;;;484989;246;1167;-73
2022/09/03 06:20:08;;;;;;;;;;;21.70;47.60;;;;;;484960;246;1250;-73
2022/09/03 06:22:10;;;;;;;;;;;21.70;47.50;;;;;;484990;246;1218;-73
2022/09/03 06:24:11;;;;;;;;;;;21.60;47.80;;;;;;485019;246;1342;-73
2022/09/03 06:26:12;;;;;;;;;;;21.60;47.90;;;;;;484988;246;1148;-73
2022/09/03 06:28:14;;;;;;;;;;;21.60;47.90;;;;;;484987;246;1173;-73
2022/09/03 06:30:15;;;;;;;;;;;21.70;47.80;;;;;;485024;246;1304;-73
2022/09/03 06:32:16;;;;;;;;;;;21.80;47.40;;;;;;484977;246;1184;-73
2022/09/03 06:34:18;;;;;;;;;;;21.90;47.40;;;;;;485014;245;2183;-73
2022/09/03 06:36:19;;;;;;;;;;;21.90;47.20;;;;;;485060;245;1200;-73
2022/09/03 06:38:20;;;;;;;;;;;22.00;47.30;;;;;;484999;246;1196;-73
2022/09/03 06:40:25;;;;;;;;;;;21.90;47.20;;;;;;484965;246;1281;-73
2022/09/03 06:42:23;;;;;;;;;;;21.90;47.40;;;;;;484661;246;1430;-73
2022/09/03 06:44:24;;;;;;;;;;;21.90;47.40;;;;;;484974;246;1175;-73
2022/09/03 06:46:26;;;;;;;;;;;21.90;47.40;;;;;;484938;246;1195;-73
2022/09/03 06:48:27;;;;;;;;;;;21.90;47.40;;;;;;484937;246;1130;-73
2022/09/03 06:50:28;;;;;;;;;;;21.90;47.60;;;;;;484910;246;1180;-73
2022/09/03 06:52:30;;;;;;;;;;;21.90;47.50;;;;;;484929;246;1125;-73
2022/09/03 06:54:31;;;;;;;;;;;22.00;47.40;;;;;;484910;246;2190;-73
2022/09/03 06:56:32;;;;;;;;;;;21.90;47.50;;;;;;484909;246;1173;-73
2022/09/03 06:58:34;;;;;;;;;;;22.00;47.40;;;;;;484946;246;1146;-73
2022/09/03 07:00:35;;;;;;;;;;;21.90;47.50;;;;;;484919;246;1172;-73
2022/09/03 07:02:40;;;;;;;;;;;21.90;47.70;;;;;;484923;246;1137;-73
2022/09/03 07:04:38;;;;;;;;;;;21.90;47.70;;;;;;484832;246;1428;-73
2022/09/03 07:06:39;;;;;;;;;;;21.80;47.80;;;;;;484886;246;1108;-73
2022/09/03 07:08:41;;;;;;;;;;;21.80;48.00;;;;;;484921;246;1161;-73
2022/09/03 07:10:42;;;;;;;;;;;21.90;48.00;;;;;;484918;245;1236;-73
2022/09/03 07:12:44;;;;;;;;;;;21.90;47.80;;;;;;484459;246;1128;-73
2022/09/03 07:14:45;;;;;;;;;;;21.90;47.70;;;;;;484934;246;2136;-73
2022/09/03 07:16:46;;;;;;;;;;;21.90;47.80;;;;;;484915;246;1171;-73
2022/09/03 07:18:48;;;;;;;;;;;21.80;48.00;;;;;;484940;246;1141;-73
2022/09/03 07:20:49;;;;;;;;;;;21.80;48.20;;;;;;484869;246;1276;-73
2022/09/03 07:22:50;;;;;;;;;;;21.80;48.10;;;;;;484897;246;1240;-73
2022/09/03 07:24:52;;;;;;;;;;;21.90;48.00;;;;;;484928;246;1146;-73
2022/09/03 07:26:56;;;;;;;;;;;22.00;47.90;;;;;;484914;246;1124;-73
2022/09/03 07:28:54;;;;;;;;;;;22.00;47.80;;;;;;484744;246;1504;-73
2022/09/03 07:30:56;;;;;;;;;;;22.00;47.90;;;;;;484935;246;1079;-73
2022/09/03 07:33:01;;;;;;;;;;;22.10;47.70;;;;;;484949;246;1313;-73
2022/09/03 07:34:58;;;;;;;;;;;22.10;47.60;;;;;;484685;246;2151;-73
2022/09/03 07:37:00;;;;;;;;;;;22.20;47.50;;;;;;484999;246;1160;-73
2022/09/03 07:39:02;;;;;;;;;;;22.30;47.30;;;;;;484922;246;1224;-73
2022/09/03 07:41:02;;;;;;;;;;;22.30;47.20;;;;;;484853;246;1426;-73
2022/09/03 07:43:04;;;;;;;;;;;22.40;47.10;;;;;;484978;245;1216;-73
2022/09/03 07:45:08;;;;;;;;;;;22.40;47.10;;;;;;484929;246;1173;-73
2022/09/03 07:47:06;;;;;;;;;;;22.30;47.20;;;;;;484759;246;1431;-74
2022/09/03 07:49:09;;;;;;;;;;;22.30;47.40;;;;;;484977;246;1125;-73
2022/09/03 07:51:09;;;;;;;;;;;22.30;47.50;;;;;;484884;246;1387;-74
2022/09/03 07:53:10;;;;;;;;;;;22.30;47.40;;;;;;485035;246;1174;-73
2022/09/03 07:55:12;;;;;;;;;;;22.30;47.30;;;;;;484935;246;2208;-73
2022/09/03 07:57:13;;;;;;;;;;;22.20;47.40;;;;;;484970;246;1162;-73
2022/09/03 07:59:15;;;;;;;;;;;22.30;47.50;;;;;;485024;246;1155;-73
2022/09/03 08:01:16;;;;;;;;;;;22.30;47.40;;;;;;484990;246;1135;-73
2022/09/03 08:03:17;;;;;;;;;;;22.30;47.50;;;;;;484968;245;1200;-73
2022/09/03 08:05:20;;;;;;;;;;;22.30;47.50;;;;;;484981;246;1190;-73
2022/09/03 08:07:20;;;;;;;;;;;22.30;47.50;;;;;;484852;246;1577;-73
2022/09/03 08:09:22;;;;;;;;;;;22.20;47.60;;;;;;484941;246;1301;-73
2022/09/03 08:11:23;;;;;;;;;;;22.30;47.60;;;;;;484938;246;1172;-73
2022/09/03 08:13:25;;;;;;;;;;;22.30;47.50;;;;;;484964;246;1197;-73
2022/09/03 08:15:26;;;;;;;;;;;22.40;47.30;;;;;;484913;246;2204;-73
2022/09/03 08:17:27;;;;;;;;;;;22.30;47.40;;;;;;485042;246;1228;-73
2022/09/03 08:19:29;;;;;;;;;;;22.30;47.40;;;;;;484955;246;1173;-73
2022/09/03 08:21:30;;;;;;;;;;;22.30;47.50;;;;;;484924;246;1142;-73
2022/09/03 08:23:31;;;;;;;;;;;22.30;47.50;;;;;;483227;244;1215;-75
2022/09/03 08:25:33;;;;;;;;;;;22.40;47.50;;;;;;479344;248;1189;-73
2022/09/03 08:27:34;;;;;;;;;;;22.40;47.40;;;;;;481713;246;1325;-73
2022/09/03 08:29:35;;;;;;;;;;;22.50;47.30;;;;;;484931;246;1178;-73
2022/09/03 08:31:37;;;;;;;;;;;22.50;47.30;;;;;;484934;244;1256;-73
2022/09/03 08:33:39;;;;;;;;;;;22.50;47.30;;;;;;484915;245;1203;-73
2022/09/03 08:35:39;;;;;;;;;;;22.40;47.40;;;;;;484744;246;2164;-73
2022/09/03 08:37:41;;;;;;;;;;;22.30;47.70;;;;;;485029;245;1258;-73
2022/09/03 14:22:17;;;;;;;;;;;22.50;50.40;;;;;;484526;244;2107;-73
2022/09/03 14:24:18;;;;;;;;;;;22.50;50.30;;;;;;484501;246;1056;-73
2022/09/03 14:26:19;;;;;;;;;;;22.50;50.40;;;;;;484612;246;1093;-73
2022/09/03 14:28:21;;;;;;;;;;;22.40;50.30;;;;;;484500;246;1234;-73
2022/09/03 14:30:22;;;;;;;;;;;22.40;50.40;;;;;;484697;246;1177;-73
2022/09/03 14:32:23;;;;;;;;;;;22.50;50.40;;;;;;484519;246;1341;-73
2022/09/03 14:34:25;;;;;;;;;;;22.40;50.40;;;;;;484596;246;1319;-73
2022/09/03 14:36:26;;;;;;;;;;;22.30;50.50;;;;;;484499;246;2203;-73
2022/09/03 14:38:27;;;;;;;;;;;22.30;50.60;;;;;;484626;246;1147;-73
2022/09/03 14:40:29;;;;;;;;;;;22.30;50.60;;;;;;484519;246;1258;-73
2022/09/03 14:42:30;;;;;;;;;;;22.30;50.70;;;;;;484693;246;1105;-73
2022/09/03 14:44:31;;;;;;;;;;;22.30;50.60;;;;;;484588;246;1201;-73
2022/09/03 14:46:33;;;;;;;;;;;22.30;50.50;;;;;;484533;246;1211;-73
2022/09/03 14:48:34;;;;;;;;;;;22.30;50.50;;;;;;484641;246;1097;-73
2022/09/03 14:50:35;;;;;;;;;;;22.30;50.60;;;;;;484495;246;1168;-73
2022/09/03 14:52:37;;;;;;;;;;;22.30;50.60;;;;;;484547;246;1113;-73
2022/09/03 14:54:38;;;;;;;;;;;22.30;50.70;;;;;;484525;246;1166;-73
2022/09/03 14:56:39;;;;;;;;;;;22.40;50.70;;;;;;484579;246;2195;-73
2022/09/03 14:58:41;;;;;;;;;;;22.40;50.60;;;;;;484510;246;1207;-73
2022/09/03 15:00:42;;;;;;;;;;;22.50;50.60;;;;;;484495;246;1189;-73
2022/09/03 15:02:45;;;;;;;;;;;22.60;50.50;;;;;;484508;246;1210;-73
2022/09/03 15:04:45;;;;;;;;;;;22.60;50.50;;;;;;484470;246;1420;-73
2022/09/03 15:06:46;;;;;;;;;;;22.60;50.50;;;;;;484486;243;1181;-73
2022/09/03 15:08:47;;;;;;;;;;;22.60;50.50;;;;;;484604;246;1126;-73
2022/09/03 15:10:49;;;;;;;;;;;22.60;50.50;;;;;;484543;246;1202;-73
2022/09/03 15:12:50;;;;;;;;;;;22.60;50.60;;;;;;484632;246;1183;-73
2022/09/03 15:14:51;;;;;;;;;;;22.60;50.60;;;;;;484548;246;1151;-73
2022/09/03 15:16:53;;;;;;;;;;;22.60;50.60;;;;;;484534;246;2186;-73
2022/09/03 15:18:57;;;;;;;;;;;22.50;50.70;;;;;;484578;246;1098;-73
2022/09/03 15:20:56;;;;;;;;;;;22.40;51.00;;;;;;484237;246;1439;-73
2022/09/03 15:22:57;;;;;;;;;;;22.50;51.00;;;;;;484563;246;1175;-73
2022/09/03 15:24:58;;;;;;;;;;;22.40;51.10;;;;;;484578;246;1123;-74
2022/09/03 15:27:00;;;;;;;;;;;22.40;51.10;;;;;;484525;246;1323;-73
2022/09/03 15:29:01;;;;;;;;;;;22.50;51.10;;;;;;484503;246;1218;-73
2022/09/03 15:31:02;;;;;;;;;;;22.50;50.90;;;;;;484528;246;1142;-73
2022/09/03 15:33:04;;;;;;;;;;;22.50;50.80;;;;;;484536;246;1115;-73
2022/09/03 15:35:05;;;;;;;;;;;22.50;51.00;;;;;;484481;246;1205;-73
2022/09/03 15:37:06;;;;;;;;;;;22.50;50.90;;;;;;484447;246;2191;-73
2022/09/03 15:39:08;;;;;;;;;;;22.40;51.10;;;;;;484484;246;1156;-73
2022/09/03 15:41:10;;;;;;;;;;;22.50;51.00;;;;;;484469;246;1277;-73
2022/09/03 15:43:11;;;;;;;;;;;22.50;51.00;;;;;;484469;246;1478;-73
2022/09/03 15:45:12;;;;;;;;;;;22.50;51.00;;;;;;484494;246;1202;-73
2022/09/03 15:47:13;;;;;;;;;;;22.50;51.00;;;;;;484543;246;1146;-73
2022/09/03 15:49:15;;;;;;;;;;;22.40;51.10;;;;;;484556;246;1161;-73
2022/09/03 15:51:16;;;;;;;;;;;22.30;51.20;;;;;;484482;244;1186;-73
2022/09/03 15:53:17;;;;;;;;;;;22.40;51.30;;;;;;484561;246;1238;-73
2022/09/03 15:55:18;;;;;;;;;;;22.30;51.20;;;;;;484518;246;1200;-73
2022/09/03 15:57:20;;;;;;;;;;;22.30;51.40;;;;;;484510;246;2203;-73
2022/09/03 15:59:22;;;;;;;;;;;22.30;51.40;;;;;;484556;246;1155;-73
2022/09/03 16:01:24;;;;;;;;;;;22.40;51.40;;;;;;484481;246;1465;-73
2022/09/03 16:03:25;;;;;;;;;;;22.40;51.30;;;;;;484524;246;1300;-74
2022/09/03 16:05:27;;;;;;;;;;;22.50;51.10;;;;;;484473;246;1165;-73
2022/09/03 16:07:28;;;;;;;;;;;22.40;51.20;;;;;;484435;246;1480;-73
2022/09/03 16:09:29;;;;;;;;;;;22.40;51.20;;;;;;484520;246;1232;-73
2022/09/03 16:11:30;;;;;;;;;;;22.40;51.20;;;;;;484581;246;1274;-73
2022/09/03 16:13:32;;;;;;;;;;;22.40;51.20;;;;;;484536;246;1115;-73
2022/09/03 16:15:33;;;;;;;;;;;22.30;51.30;;;;;;484522;246;1200;-73
2022/09/03 16:17:35;;;;;;;;;;;22.40;51.40;;;;;;484643;246;2199;-73
2022/09/03 16:19:36;;;;;;;;;;;22.40;51.40;;;;;;484531;246;1393;-73
2022/09/03 16:21:38;;;;;;;;;;;22.40;51.30;;;;;;484567;246;1189;-73
2022/09/03 16:23:39;;;;;;;;;;;22.30;51.50;;;;;;484534;246;1187;-73
2022/09/03 16:25:40;;;;;;;;;;;22.30;51.60;;;;;;484564;246;1160;-73
2022/09/03 16:27:42;;;;;;;;;;;22.20;51.60;;;;;;484520;246;1156;-73
2022/09/03 16:29:43;;;;;;;;;;;22.30;51.60;;;;;;484511;246;1166;-73
2022/09/03 16:31:44;;;;;;;;;;;22.20;51.70;;;;;;484597;246;1676;-74
2022/09/03 16:33:46;;;;;;;;;;;22.20;51.80;;;;;;484517;246;1216;-74
2022/09/03 16:35:48;;;;;;;;;;;22.20;51.80;;;;;;484484;246;1117;-73
2022/09/03 16:37:48;;;;;;;;;;;22.30;51.70;;;;;;484395;246;2187;-73
2022/09/03 16:39:50;;;;;;;;;;;22.20;51.60;;;;;;484499;246;1223;-74
2022/09/03 16:41:51;;;;;;;;;;;22.30;51.70;;;;;;484553;246;1214;-73
2022/09/03 16:43:53;;;;;;;;;;;22.30;51.60;;;;;;484476;246;1127;-73
2022/09/03 16:45:54;;;;;;;;;;;22.40;51.30;;;;;;484443;246;1145;-73
2022/09/03 16:47:56;;;;;;;;;;;22.30;51.30;;;;;;484407;246;1465;-74
2022/09/03 16:49:57;;;;;;;;;;;22.40;51.30;;;;;;484451;246;1195;-73
2022/09/03 16:51:58;;;;;;;;;;;22.30;51.30;;;;;;484358;246;1183;-73
2022/09/03 16:54:03;;;;;;;;;;;22.30;51.40;;;;;;484070;246;1344;-73
2022/09/03 16:56:07;;;;;;;;;;;22.30;51.40;;;;;;484492;246;1300;-73
2022/09/03 16:58:07;;;;;;;;;;;22.20;51.60;;;;;;484302;246;2151;-73
2022/09/03 17:00:09;;;;;;;;;;;22.20;51.60;;;;;;484502;246;1184;-73
2022/09/03 17:02:10;;;;;;;;;;;22.30;51.60;;;;;;484502;246;1371;-73
2022/09/03 17:04:11;;;;;;;;;;;22.30;51.50;;;;;;484491;246;1196;-73
2022/09/03 17:06:13;;;;;;;;;;;22.50;51.20;;;;;;484594;246;1136;-73
2022/09/03 17:08:14;;;;;;;;;;;22.40;51.00;;;;;;484374;246;1118;-73
2022/09/03 17:10:16;;;;;;;;;;;22.50;51.00;;;;;;484510;246;1212;-73
2022/09/03 17:12:17;;;;;;;;;;;22.50;50.90;;;;;;484465;246;1246;-73
2022/09/03 17:14:18;;;;;;;;;;;22.50;50.80;;;;;;484507;246;1202;-73
2022/09/03 17:16:19;;;;;;;;;;;22.40;51.00;;;;;;484472;246;1173;-73
2022/09/03 17:18:21;;;;;;;;;;;22.40;51.00;;;;;;484458;246;2199;-73
2022/09/03 17:20:22;;;;;;;;;;;22.40;51.00;;;;;;484523;246;1187;-73
2022/09/03 17:22:23;;;;;;;;;;;22.40;51.00;;;;;;484546;246;1166;-73
2022/09/03 17:24:25;;;;;;;;;;;22.40;51.20;;;;;;484540;244;1298;-73
2022/09/03 17:26:28;;;;;;;;;;;22.30;51.20;;;;;;484196;246;1175;-73
2022/09/03 17:28:29;;;;;;;;;;;22.40;51.30;;;;;;484444;246;1472;-73
2022/09/03 17:30:29;;;;;;;;;;;22.30;51.30;;;;;;484427;246;1515;-73
2022/09/03 17:32:30;;;;;;;;;;;22.20;51.30;;;;;;484579;246;1141;-73
2022/09/03 17:34:32;;;;;;;;;;;22.30;51.40;;;;;;484520;246;1235;-73
2022/09/03 17:36:33;;;;;;;;;;;22.30;51.20;;;;;;484525;246;1197;-73
2022/09/03 17:38:34;;;;;;;;;;;22.40;51.00;;;;;;484523;246;2190;-75
2022/09/03 17:40:35;;;;;;;;;;;22.40;51.00;;;;;;484479;246;1195;-74